Time;durP1;ratioP1;P1;durP2;ratioP2;P2;SDS_P1;SDS_P2;PMS_P1;PMS_P2;Temp;Humidity;BMP_temperature;BMP_pressure;BME280_temperature;BME280_humidity;BME280_pressure;Samples;Min_cycle;Max_cycle;Signal;HPM_P1;HPM_P2
2023/08/22 00:01:55;;;;;;;6.38;3.65;;;;;;;19.48;78.60;101987.94;5048251;28;20032;-85
2023/08/22 00:04:21;;;;;;;5.47;3.78;;;;;;;19.46;78.52;101978.38;5050993;28;20025;-85
2023/08/22 00:06:46;;;;;;;5.35;3.70;;;;;;;19.44;78.57;101969.66;5051270;28;20024;-84
2023/08/22 00:09:11;;;;;;;5.22;3.42;;;;;;;19.41;78.39;101965.41;5052743;28;20380;-84
2023/08/22 00:11:37;;;;;;;5.78;4.10;;;;;;;19.38;78.01;101961.13;5054467;28;20032;-85
2023/08/22 00:14:02;;;;;;;5.90;3.83;;;;;;;19.34;78.10;101970.09;5053798;28;20063;-84
2023/08/22 00:16:27;;;;;;;7.07;3.88;;;;;;;19.31;79.35;101975.50;5051068;28;20369;-84
2023/08/22 00:18:53;;;;;;;5.85;3.75;;;;;;;19.30;79.68;101976.44;5053846;28;20033;-85
2023/08/22 00:21:18;;;;;;;6.80;3.83;;;;;;;19.31;79.38;101961.44;5052777;28;20480;-85
2023/08/22 00:23:43;;;;;;;5.25;3.65;;;;;;;19.28;79.73;101964.25;5053615;28;20029;-84
2023/08/22 00:26:09;;;;;;;6.07;3.75;;;;;;;19.21;79.82;101969.78;5047695;28;20048;-85
2023/08/22 00:28:34;;;;;;;5.32;3.58;;;;;;;19.20;80.12;101969.84;5051365;28;20029;-85
2023/08/22 00:30:59;;;;;;;6.38;4.00;;;;;;;19.20;79.38;101968.06;5053186;28;20033;-85
2023/08/22 00:33:25;;;;;;;6.25;3.50;;;;;;;19.18;79.87;101974.34;5052144;28;20033;-85
2023/08/22 00:35:50;;;;;;;6.43;4.18;;;;;;;19.12;80.26;101970.19;5052045;28;20029;-85
2023/08/22 00:38:15;;;;;;;5.30;3.80;;;;;;;19.09;80.88;101965.06;5052487;28;20029;-85
2023/08/22 00:40:40;;;;;;;5.70;4.03;;;;;;;19.05;80.82;101971.38;5052871;28;20284;-85
2023/08/22 00:43:06;;;;;;;6.80;3.90;;;;;;;19.00;80.71;101962.78;5053981;28;20049;-84
2023/08/22 00:45:31;;;;;;;6.80;3.70;;;;;;;18.98;81.08;101956.72;5049863;28;20055;-84
2023/08/22 00:47:56;;;;;;;4.97;3.53;;;;;;;18.96;81.37;101955.00;5051864;28;20104;-84
2023/08/22 00:50:22;;;;;;;5.25;3.88;;;;;;;18.90;81.43;101950.00;5051925;28;20092;-84
2023/08/22 00:52:47;;;;;;;6.55;3.63;;;;;;;18.89;81.68;101953.56;5038435;28;20159;-84
2023/08/22 00:55:13;;;;;;;5.47;3.63;;;;;;;18.89;81.66;101948.28;5042701;28;20074;-85
2023/08/22 00:57:39;;;;;;;5.25;3.50;;;;;;;18.90;82.27;101950.00;5052465;28;20132;-85
2023/08/22 01:00:10;;;;;;;5.15;3.58;;;;;;;18.90;81.89;101944.72;5053455;28;20526;-84
2023/08/22 01:02:39;;;;;;;7.03;3.58;;;;;;;18.92;82.10;101937.59;5049642;28;20078;-85
2023/08/22 01:05:05;;;;;;;5.10;3.40;;;;;;;18.94;82.26;101934.88;5050501;28;20055;-85
2023/08/22 01:07:36;;;;;;;5.65;3.28;;;;;;;18.93;82.09;101934.03;5048315;28;20103;-85
2023/08/22 01:10:05;;;;;;;;;;;;;;;19.00;78.00;101934.66;5052992;28;20017;-85
2023/08/22 01:12:45;;;;;;;4.95;2.95;;;;;;;18.90;81.71;101933.31;5053974;28;19909;-84
2023/08/22 01:15:25;;;;;;;6.15;3.30;;;;;;;18.86;80.91;101943.13;5050819;28;20028;-85
2023/08/22 01:17:56;;;;;;;5.80;3.35;;;;;;;18.81;82.12;101929.28;5053933;28;20021;-85
2023/08/22 01:20:22;;;;;;;5.18;3.42;;;;;;;18.80;81.88;101938.13;5054036;28;20021;-85
2023/08/22 01:22:47;;;;;;;6.47;3.88;;;;;;;18.79;81.90;101933.75;5053438;28;20025;-84
2023/08/22 01:25:13;;;;;;;5.70;3.53;;;;;;;18.79;82.48;101946.94;5044581;28;20029;-84
2023/08/22 01:28:14;;;;;;;6.97;4.15;;;;;;;18.79;80.71;101939.91;5045497;28;20104;-84
2023/08/22 01:30:45;;;;;;;5.63;3.65;;;;;;;18.75;81.46;101937.47;5047695;28;20072;-84
2023/08/22 01:33:22;;;;;;;4.97;3.20;;;;;;;18.72;82.11;101948.16;5041864;28;20033;-84
2023/08/22 01:35:50;;;;;;;5.85;3.38;;;;;;;18.67;82.73;101935.16;5046604;28;20049;-84
2023/08/22 01:38:19;;;;;;;5.38;3.45;;;;;;;18.64;82.37;101938.78;5035616;28;20784;-84
2023/08/22 01:40:45;;;;;;;5.38;3.33;;;;;;;18.61;81.72;101928.38;5048058;28;20033;-84
2023/08/22 01:43:10;;;;;;;4.25;3.33;;;;;;;18.57;81.67;101924.16;5045279;28;20025;-85
2023/08/22 01:45:35;;;;;;;5.10;3.50;;;;;;;18.55;81.68;101917.22;5039739;28;20075;-84
2023/08/22 01:48:01;;;;;;;5.90;4.10;;;;;;;18.50;82.67;101925.31;5048613;28;20036;-84
2023/08/22 01:50:26;;;;;;;4.90;3.50;;;;;;;18.46;82.59;101932.50;5043819;28;20526;-84
2023/08/22 01:52:51;;;;;;;4.85;3.75;;;;;;;18.42;83.29;101922.16;5045953;28;20470;-84
2023/08/22 01:55:19;;;;;;;5.18;3.50;;;;;;;18.39;83.77;101927.56;5039499;28;20024;-85
2023/08/22 01:57:44;;;;;;;5.70;3.55;;;;;;;18.38;83.28;101926.69;5045608;28;20037;-84
2023/08/22 02:00:10;;;;;;;5.07;3.60;;;;;;;18.39;83.98;101927.56;5036652;28;20109;-84
2023/08/22 02:02:36;;;;;;;6.60;3.95;;;;;;;18.41;83.80;101925.72;5039271;28;20044;-84
2023/08/22 02:05:01;;;;;;;5.50;3.80;;;;;;;18.42;84.20;101924.81;5040448;28;20025;-84
2023/08/22 02:07:27;;;;;;;6.18;3.85;;;;;;;18.42;84.32;101922.16;5041649;28;20029;-84
2023/08/22 02:09:52;;;;;;;7.45;4.38;;;;;;;18.41;84.04;101931.00;5045673;28;20023;-84
2023/08/22 02:12:17;;;;;;;6.85;4.60;;;;;;;18.35;83.84;101926.84;5049820;28;20020;-84
2023/08/22 02:14:43;;;;;;;5.75;4.30;;;;;;;18.34;84.19;101920.69;5039429;28;21643;-84
2023/08/22 02:17:08;;;;;;;6.57;4.57;;;;;;;18.32;84.52;101919.91;5043365;28;20023;-84
2023/08/22 02:19:33;;;;;;;8.15;4.40;;;;;;;18.31;84.51;101915.53;5041893;28;20033;-85
2023/08/22 02:21:59;;;;;;;5.43;4.32;;;;;;;18.31;84.27;101918.19;5039255;28;20165;-84
2023/08/22 02:24:24;;;;;;;8.35;4.72;;;;;;;18.29;84.77;101921.81;5049435;28;20044;-84
2023/08/22 02:26:49;;;;;;;6.03;4.60;;;;;;;18.24;84.92;101914.09;5048773;28;20357;-84
2023/08/22 02:29:14;;;;;;;5.50;4.68;;;;;;;18.20;85.38;101908.06;5046469;28;20032;-85
2023/08/22 02:31:40;;;;;;;5.88;4.70;;;;;;;18.19;85.98;101908.16;5050521;28;20472;-84
2023/08/22 02:34:05;;;;;;;6.45;4.72;;;;;;;18.17;85.80;101915.25;5050547;28;20079;-84
2023/08/22 02:36:30;;;;;;;6.03;4.50;;;;;;;18.19;85.84;101916.91;5051622;28;20090;-84
2023/08/22 02:38:55;;;;;;;6.38;4.05;;;;;;;18.20;85.06;101909.88;5050410;28;20075;-84
2023/08/22 02:41:21;;;;;;;6.72;4.25;;;;;;;18.20;84.70;101907.25;5049792;28;20448;-84
2023/08/22 02:43:46;;;;;;;7.25;4.80;;;;;;;18.19;85.36;101911.63;5050614;28;20040;-84
2023/08/22 02:46:11;;;;;;;6.10;4.30;;;;;;;18.20;84.95;101907.25;5050033;28;20029;-84
2023/08/22 02:48:38;;;;;;;6.85;4.97;;;;;;;18.20;84.73;101901.97;5046504;28;20489;-85
2023/08/22 02:51:04;;;;;;;6.38;4.35;;;;;;;18.18;85.36;101907.31;5047997;28;20025;-84
2023/08/22 02:53:29;;;;;;;5.75;4.88;;;;;;;18.18;85.91;101903.81;5051725;28;20055;-84
2023/08/22 02:55:54;;;;;;;5.97;4.57;;;;;;;18.18;85.43;101911.72;5052789;28;20485;-84
2023/08/22 02:58:20;;;;;;;6.78;4.72;;;;;;;18.18;85.40;101903.81;5054338;28;20100;-84
2023/08/22 03:00:46;;;;;;;5.93;4.32;;;;;;;18.17;85.82;101904.72;5052670;28;20029;-84
2023/08/22 03:03:11;;;;;;;5.00;4.18;;;;;;;18.17;85.36;101910.00;5054730;28;20086;-84
2023/08/22 03:05:37;;;;;;;6.28;4.10;;;;;;;18.15;85.36;101901.28;5055280;28;20469;-84
2023/08/22 03:08:03;;;;;;;7.82;4.68;;;;;;;18.15;85.57;101909.19;5055685;28;20020;-84
2023/08/22 03:10:28;;;;;;;5.88;4.57;;;;;;;18.14;85.27;101902.22;5052453;28;20166;-85
2023/08/22 03:12:53;;;;;;;5.95;4.47;;;;;;;18.12;85.34;101901.41;5052696;28;20078;-84
2023/08/22 03:15:18;;;;;;;5.82;4.60;;;;;;;18.12;86.11;101906.69;5054550;28;20082;-85
2023/08/22 03:17:44;;;;;;;7.20;4.65;;;;;;;18.11;85.86;101916.38;5053932;28;20373;-84
2023/08/22 03:20:09;;;;;;;6.18;4.30;;;;;;;18.10;85.85;101911.19;5054750;28;20167;-85
2023/08/22 03:22:35;;;;;;;7.65;4.65;;;;;;;18.06;85.25;101905.16;5054626;28;20387;-84
2023/08/22 03:25:00;;;;;;;5.15;4.30;;;;;;;18.03;86.08;101903.50;5055504;28;20109;-84
2023/08/22 03:27:25;;;;;;;7.32;4.78;;;;;;;18.00;86.21;101898.38;5054348;28;20465;-84
2023/08/22 03:29:50;;;;;;;6.43;4.07;;;;;;;17.99;86.35;101899.28;5053806;28;20107;-84
2023/08/22 03:32:16;;;;;;;6.03;4.07;;;;;;;17.94;86.21;101893.31;5052980;28;20464;-84
2023/08/22 03:34:41;;;;;;;5.60;4.28;;;;;;;17.92;86.47;101889.91;5053464;28;20100;-84
2023/08/22 03:37:06;;;;;;;7.57;4.10;;;;;;;17.88;86.55;101898.84;5046250;28;20460;-84
2023/08/22 03:39:32;;;;;;;5.82;4.22;;;;;;;17.83;86.95;101899.03;5051459;28;20025;-84
2023/08/22 03:41:57;;;;;;;5.53;4.30;;;;;;;17.81;87.22;101898.22;5053208;28;20468;-84
2023/08/22 03:44:22;;;;;;;5.88;4.57;;;;;;;17.79;87.20;101896.53;5054211;28;20029;-84
2023/08/22 03:46:47;;;;;;;6.63;4.22;;;;;;;17.78;87.57;101897.47;5055264;28;20021;-84
2023/08/22 03:49:15;;;;;;;5.75;3.80;;;;;;;17.74;86.33;101892.34;5054656;28;20029;-84
2023/08/22 03:51:41;;;;;;;7.38;4.28;;;;;;;17.69;87.06;101896.91;5054447;28;20021;-84
2023/08/22 03:54:06;;;;;;;5.30;4.15;;;;;;;17.66;87.49;101896.19;5054157;28;20492;-84
2023/08/22 03:56:31;;;;;;;5.47;3.80;;;;;;;17.66;87.00;101902.28;5052421;28;20053;-84
2023/08/22 03:58:58;;;;;;;6.15;4.15;;;;;;;17.64;87.09;101896.22;5054042;28;20029;-84
2023/08/22 04:01:23;;;;;;;7.63;4.07;;;;;;;17.64;87.35;101906.75;5048377;28;20021;-84
2023/08/22 04:03:48;;;;;;;5.57;4.28;;;;;;;17.63;87.48;101899.78;5053184;28;20428;-84
2023/08/22 04:06:13;;;;;;;5.93;4.13;;;;;;;17.63;86.78;101896.31;5051848;28;20053;-84
2023/08/22 04:08:39;;;;;;;5.45;3.88;;;;;;;17.60;86.73;101902.53;5038607;28;20087;-84
2023/08/22 04:11:04;;;;;;;6.07;3.83;;;;;;;17.61;87.00;101904.25;5052185;28;20112;-85
2023/08/22 04:13:29;;;;;;;4.43;3.40;;;;;;;17.60;86.90;101894.63;5053708;28;20040;-84
2023/08/22 04:15:54;;;;;;;3.70;2.85;;;;;;;17.57;86.17;101902.66;5052468;28;20542;-84
2023/08/22 04:18:20;;;;;;;4.55;2.90;;;;;;;17.54;86.26;101894.88;5053921;28;20033;-84
2023/08/22 04:20:45;;;;;;;6.35;3.70;;;;;;;17.51;87.53;101892.38;5046025;28;20043;-84
2023/08/22 04:23:10;;;;;;;6.55;3.78;;;;;;;17.48;87.60;101888.09;5054065;28;20029;-84
2023/08/22 04:25:36;;;;;;;4.13;3.10;;;;;;;17.43;86.91;101885.59;5041890;28;20029;-84
2023/08/22 04:28:02;;;;;;;4.63;3.40;;;;;;;17.39;87.07;101889.28;5052561;28;20456;-85
2023/08/22 04:30:27;;;;;;;5.15;3.63;;;;;;;17.34;87.32;101885.97;5046605;28;20056;-84
2023/08/22 04:32:52;;;;;;;6.90;3.75;;;;;;;17.30;87.56;101887.00;5045526;28;20032;-84
2023/08/22 04:35:18;;;;;;;8.02;3.92;;;;;;;17.27;87.77;101889.72;5047697;28;20021;-85
2023/08/22 04:37:43;;;;;;;4.95;3.78;;;;;;;17.27;87.76;101887.09;5052349;28;20133;-84
2023/08/22 04:40:09;;;;;;;6.40;3.97;;;;;;;17.26;87.36;101888.00;5053656;28;20076;-84
2023/08/22 04:42:34;;;;;;;5.50;3.78;;;;;;;17.21;86.84;101892.59;5038510;28;20385;-84
2023/08/22 04:44:59;;;;;;;5.57;4.15;;;;;;;17.21;87.79;101890.81;5048361;28;20032;-84
2023/08/22 04:47:25;;;;;;;6.32;3.85;;;;;;;17.21;86.40;101889.97;5046243;28;20052;-84
2023/08/22 04:49:50;;;;;;;5.35;3.53;;;;;;;17.17;86.24;101885.75;5042473;28;20361;-84
2023/08/22 04:52:16;;;;;;;6.70;3.63;;;;;;;17.11;86.50;101889.47;5047929;28;20032;-84
2023/08/22 04:54:41;;;;;;;5.13;3.78;;;;;;;17.09;86.94;101886.88;5045443;28;20021;-85
2023/08/22 04:57:07;;;;;;;5.28;3.60;;;;;;;17.07;87.20;101893.97;5047836;28;20124;-85
2023/08/22 04:59:33;;;;;;;5.88;4.03;;;;;;;17.08;87.98;101893.03;5048873;28;20025;-84
2023/08/22 05:01:58;;;;;;;6.07;4.25;;;;;;;17.08;88.35;101890.41;5048584;28;20035;-84
2023/08/22 05:04:23;;;;;;;5.45;4.05;;;;;;;17.09;88.52;101886.88;5044380;28;20021;-85
2023/08/22 05:06:48;;;;;;;7.70;3.83;;;;;;;17.10;88.63;101887.75;5044874;28;20044;-85
2023/08/22 05:09:14;;;;;;;6.18;4.10;;;;;;;17.11;88.74;101892.94;5048347;28;20025;-84
2023/08/22 05:11:40;;;;;;;6.70;4.15;;;;;;;17.10;88.71;101888.59;5044228;28;20045;-84
2023/08/22 05:14:07;;;;;;;7.88;4.82;;;;;;;17.10;88.91;101896.47;5044888;28;20064;-84
2023/08/22 05:16:32;;;;;;;6.18;4.32;;;;;;;17.12;89.21;101891.19;5047509;28;20025;-84
2023/08/22 05:18:57;;;;;;;7.45;4.57;;;;;;;17.11;89.01;101898.19;5042183;28;20033;-85
2023/08/22 05:21:23;;;;;;;6.57;4.55;;;;;;;17.10;88.66;101896.47;5050787;28;20059;-84
2023/08/22 05:23:49;;;;;;;7.22;4.80;;;;;;;17.09;89.08;101905.28;5052943;28;20100;-85
2023/08/22 05:26:14;;;;;;;7.70;4.93;;;;;;;17.10;89.09;101896.47;5053697;28;20060;-84
2023/08/22 05:28:39;;;;;;;7.65;4.85;;;;;;;17.10;89.32;101893.00;5035034;28;20044;-85
2023/08/22 05:31:05;;;;;;;7.13;5.10;;;;;;;17.13;89.93;101893.72;5041303;28;20017;-85
2023/08/22 05:33:30;;;;;;;6.90;4.85;;;;;;;17.19;89.97;101892.66;5046954;28;20037;-84
2023/08/22 05:35:55;;;;;;;6.60;4.78;;;;;;;17.25;89.94;101892.44;5051907;28;20479;-85
2023/08/22 05:38:21;;;;;;;7.72;5.07;;;;;;;17.30;90.07;101897.50;5052758;28;20111;-84
2023/08/22 05:40:46;;;;;;;8.48;5.63;;;;;;;17.34;90.14;101899.13;5047178;28;20021;-84
2023/08/22 05:43:11;;;;;;;9.23;5.85;;;;;;;17.36;90.41;101902.56;5048695;28;20029;-85
2023/08/22 05:45:36;;;;;;;8.20;6.18;;;;;;;17.41;90.68;101898.00;5043415;28;20083;-85
2023/08/22 05:48:02;;;;;;;8.77;6.35;;;;;;;17.45;90.57;101899.56;5049716;28;20028;-85
2023/08/22 05:50:27;;;;;;;8.05;5.68;;;;;;;17.54;90.80;101902.78;5037058;28;20087;-85
2023/08/22 05:52:52;;;;;;;8.02;5.68;;;;;;;17.58;90.67;101902.59;5044121;28;20051;-84
2023/08/22 05:55:18;;;;;;;9.98;6.40;;;;;;;17.65;90.56;101912.91;5043544;28;20369;-84
2023/08/22 05:57:43;;;;;;;9.77;6.40;;;;;;;17.69;90.42;101917.97;5049937;28;20045;-84
2023/08/22 06:00:09;;;;;;;11.07;7.45;;;;;;;17.73;90.65;101906.41;5048834;28;20151;-85
2023/08/22 06:02:35;;;;;;;11.13;7.50;;;;;;;17.82;90.68;101912.22;5050631;28;20400;-85
2023/08/22 06:05:00;;;;;;;11.82;7.40;;;;;;;17.86;91.00;101905.94;5051555;28;20024;-84
2023/08/22 06:07:26;;;;;;;13.13;7.55;;;;;;;17.90;90.62;101908.38;5043173;28;20064;-85
2023/08/22 06:09:51;;;;;;;10.25;7.43;;;;;;;17.98;90.33;101909.88;5050610;28;20112;-85
2023/08/22 06:12:17;;;;;;;10.70;7.90;;;;;;;18.03;89.93;101913.19;5049108;28;20538;-85
2023/08/22 06:14:42;;;;;;;13.45;9.15;;;;;;;18.09;90.08;101922.63;5051851;28;20024;-84
2023/08/22 06:17:07;;;;;;;12.50;9.20;;;;;;;18.13;89.00;101927.69;5050414;28;20052;-85
2023/08/22 06:19:33;;;;;;;13.07;9.13;;;;;;;18.20;89.31;101930.94;5051384;28;20047;-84
2023/08/22 06:21:58;;;;;;;10.90;8.95;;;;;;;18.26;89.06;101930.72;5052754;28;20054;-84
2023/08/22 06:24:23;;;;;;;9.45;8.48;;;;;;;18.33;88.67;101929.50;5052265;28;20025;-84
2023/08/22 06:26:49;;;;;;;12.38;8.18;;;;;;;18.37;87.89;101917.06;5045808;28;20029;-85
2023/08/22 06:29:16;;;;;;;11.05;8.80;;;;;;;18.43;88.15;101923.88;5048208;28;20515;-84
2023/08/22 06:31:41;;;;;;;11.70;8.20;;;;;;;18.48;88.10;101921.88;5044318;28;20029;-85
2023/08/22 06:34:07;;;;;;;11.55;8.23;;;;;;;18.55;87.68;101927.75;5038787;28;20033;-85
2023/08/22 06:36:32;;;;;;;12.57;7.75;;;;;;;18.59;87.18;101930.22;5050711;28;20096;-84
2023/08/22 06:38:57;;;;;;;9.90;8.13;;;;;;;18.64;87.27;101922.94;5046963;28;20025;-84
2023/08/22 06:41:23;;;;;;;12.75;8.52;;;;;;;18.71;88.12;101922.69;5048139;28;20021;-84
2023/08/22 06:43:48;;;;;;;12.35;8.63;;;;;;;18.75;88.52;101919.03;5041362;28;20029;-85
2023/08/22 06:46:15;;;;;;;11.98;8.57;;;;;;;18.84;88.55;101915.13;5048229;28;20039;-85
2023/08/22 06:48:41;;;;;;;10.90;7.57;;;;;;;18.89;87.41;101921.91;5044356;28;20024;-85
2023/08/22 06:51:06;;;;;;;12.00;7.40;;;;;;;18.95;86.99;101926.09;5051434;28;20086;-85
2023/08/22 06:53:31;;;;;;;13.48;7.38;;;;;;;19.02;86.90;101931.94;5042143;28;20032;-84
2023/08/22 06:55:57;;;;;;;11.02;7.45;;;;;;;19.08;87.49;101931.69;5049635;28;20045;-85
2023/08/22 06:58:22;;;;;;;11.10;6.90;;;;;;;19.14;87.36;101935.81;5051106;28;20066;-85
2023/08/22 07:00:48;;;;;;;10.10;6.78;;;;;;;19.21;86.74;101937.28;5049965;28;20040;-85
2023/08/22 07:03:14;;;;;;;11.50;7.03;;;;;;;19.28;86.78;101935.22;5049985;28;20033;-85
2023/08/22 07:05:39;;;;;;;9.35;6.22;;;;;;;19.32;85.88;101932.38;5050736;28;20024;-83
2023/08/22 07:08:05;;;;;;;8.98;6.60;;;;;;;19.37;84.36;101942.69;5052421;28;20036;-86
2023/08/22 07:10:30;;;;;;;8.82;5.70;;;;;;;19.43;83.91;101939.78;5049485;28;20025;-86
2023/08/22 07:12:55;;;;;;;7.43;6.15;;;;;;;19.49;83.83;101944.78;5048331;28;20112;-84
2023/08/22 07:15:21;;;;;;;9.68;6.07;;;;;;;19.55;82.78;101933.94;5042581;28;20544;-84
2023/08/22 07:17:46;;;;;;;10.07;6.22;;;;;;;19.61;82.95;101946.00;5050751;28;20060;-85
2023/08/22 07:20:12;;;;;;;10.82;6.15;;;;;;;19.67;82.84;101945.72;5049416;28;20028;-84
2023/08/22 07:22:37;;;;;;;8.43;5.88;;;;;;;19.70;81.13;101947.34;5047601;28;20112;-84
2023/08/22 07:25:03;;;;;;;9.85;6.05;;;;;;;19.72;81.15;101948.13;5052152;28;20047;-84
2023/08/22 07:27:28;;;;;;;9.57;6.18;;;;;;;19.76;80.14;101949.72;5052148;28;20114;-86
2023/08/22 07:29:54;;;;;;;9.63;5.68;;;;;;;19.84;79.98;101950.19;5045969;28;20348;-85
2023/08/22 07:32:20;;;;;;;10.88;6.28;;;;;;;19.96;81.39;101955.88;5045599;28;20108;-88
2023/08/22 07:34:46;;;;;;;9.45;6.38;;;;;;;20.04;80.41;101948.41;5046095;28;20126;-86
2023/08/22 07:37:11;;;;;;;8.85;6.40;;;;;;;;;;5048037;28;20421;-85
2023/08/22 07:39:36;;;;;;;8.55;5.95;;;;;;;20.25;79.25;101948.31;5049078;28;20470;-85
2023/08/22 07:42:02;;;;;;;5.78;5.05;;;;;;;20.33;75.55;101948.78;5060265;28;20078;-85
2023/08/22 07:44:28;;;;;;;5.78;4.40;;;;;;;20.42;74.80;101956.25;5054384;28;20025;-86
2023/08/22 07:46:53;;;;;;;6.60;4.30;;;;;;;20.49;73.67;101943.59;5054498;28;20032;-86
2023/08/22 07:49:18;;;;;;;5.57;3.55;;;;;;;20.56;71.59;101952.06;5062891;28;20020;-87
2023/08/22 07:51:44;;;;;;;5.93;3.40;;;;;;;20.62;71.56;101949.13;5063009;28;20239;-86
2023/08/22 07:54:09;;;;;;;7.25;3.55;;;;;;;20.69;71.04;101945.22;5065837;28;20039;-86
2023/08/22 07:56:35;;;;;;;5.55;2.97;;;;;;;20.75;69.92;101947.59;5055353;28;20041;-86
2023/08/22 07:59:00;;;;;;;5.95;3.60;;;;;;;20.77;68.95;101953.66;5054580;28;20025;-86
2023/08/22 08:01:26;;;;;;;5.82;3.22;;;;;;;20.83;68.63;101949.00;5053978;28;20023;-86
2023/08/22 08:03:51;;;;;;;7.50;3.60;;;;;;;20.87;67.01;101958.47;5056432;28;20093;-86
2023/08/22 08:06:16;;;;;;;8.20;3.72;;;;;;;20.90;67.86;101947.72;5043159;28;20060;-85
2023/08/22 08:08:42;;;;;;;10.05;3.95;;;;;;;20.98;68.31;101957.91;5046916;28;20041;-86
2023/08/22 08:11:07;;;;;;;6.90;3.58;;;;;;;21.04;68.00;101954.97;5052045;28;20032;-86
2023/08/22 08:13:32;;;;;;;7.22;4.00;;;;;;;21.10;68.08;101951.97;5045090;28;20430;-86
2023/08/22 08:15:58;;;;;;;7.72;4.60;;;;;;;21.14;67.09;101961.47;5044758;28;20025;-86
2023/08/22 08:18:23;;;;;;;8.10;4.20;;;;;;;21.20;67.91;101968.22;5051467;28;20309;-86
2023/08/22 08:20:48;;;;;;;6.72;4.22;;;;;;;21.26;66.98;101969.72;5051357;28;20021;-86
2023/08/22 08:23:13;;;;;;;6.88;4.10;;;;;;;21.28;65.54;101973.97;5047570;28;20029;-86
2023/08/22 08:25:39;;;;;;;7.03;3.90;;;;;;;21.32;65.54;101974.66;5046190;28;20120;-86
2023/08/22 08:28:05;;;;;;;7.20;4.13;;;;;;;21.34;65.58;101978.06;5047697;28;20103;-86
2023/08/22 08:30:30;;;;;;;5.60;3.70;;;;;;;21.36;65.59;101971.75;5053541;28;20037;-86
2023/08/22 08:32:56;;;;;;;6.22;3.90;;;;;;;21.40;66.15;101975.13;5050109;28;20113;-86
2023/08/22 08:35:21;;;;;;;6.88;3.92;;;;;;;21.44;66.44;101981.09;5051803;28;20094;-86
2023/08/22 08:37:47;;;;;;;6.45;3.38;;;;;;;21.46;64.96;101974.75;5046223;28;20515;-87
2023/08/22 08:40:12;;;;;;;6.35;3.88;;;;;;;21.45;65.07;101978.34;5049080;28;20071;-86
2023/08/22 08:42:38;;;;;;;7.53;3.72;;;;;;;21.46;64.34;101987.16;5044858;28;20056;-86
2023/08/22 08:45:05;;;;;;;9.90;3.95;;;;;;;21.49;64.33;101985.19;5051375;28;20439;-86
2023/08/22 08:47:32;;;;;;;8.07;3.90;;;;;;;21.52;66.33;101978.91;5057530;28;20151;-85
2023/08/22 08:49:59;;;;;;;10.73;4.30;;;;;;;21.57;65.75;101973.34;5049951;28;20025;-85
2023/08/22 08:52:25;;;;;;;8.15;3.95;;;;;;;21.62;64.80;101982.78;5055882;28;20472;-86
2023/08/22 08:54:51;;;;;;;9.68;4.28;;;;;;;21.65;65.29;101972.03;5055209;28;20027;-85
2023/08/22 08:57:16;;;;;;;9.05;3.97;;;;;;;21.70;65.73;101971.75;5057705;28;20385;-85
2023/08/22 08:59:41;;;;;;;6.10;3.85;;;;;;;21.75;65.02;101968.84;5053112;28;20059;-85
2023/08/22 09:02:15;;;;;;;7.82;4.90;;;;;;;21.77;65.28;101972.28;5049718;28;20082;-84
2023/08/22 09:04:40;;;;;;;8.95;5.13;;;;;;;21.78;65.23;101972.19;5050196;28;20545;-85
2023/08/22 09:07:06;;;;;;;9.35;5.20;;;;;;;21.80;64.43;101974.75;5052285;28;20044;-85
2023/08/22 09:09:34;;;;;;;8.20;4.47;;;;;;;21.81;64.83;101979.13;5058157;28;20050;-85
2023/08/22 09:12:04;;;;;;;9.45;5.07;;;;;;;21.80;65.58;101974.75;5055346;28;20044;-84
2023/08/22 09:14:30;;;;;;;8.55;5.15;;;;;;;21.81;64.84;101971.19;5057876;28;20129;-85
2023/08/22 09:16:59;;;;;;;7.80;4.55;;;;;;;21.78;65.87;101971.34;5060163;28;20483;-85
2023/08/22 09:19:24;;;;;;;8.73;4.78;;;;;;;21.73;65.38;101968.94;5056245;28;20039;-85
2023/08/22 09:22:02;;;;;;;6.88;4.32;;;;;;;21.66;66.69;101978.16;5056747;28;20025;-85
2023/08/22 09:24:28;;;;;;;9.35;4.70;;;;;;;21.58;67.82;101967.94;5049148;28;20025;-85
2023/08/22 09:26:54;;;;;;;7.68;4.45;;;;;;;21.59;66.36;101982.91;5056014;28;20074;-85
2023/08/22 09:29:26;;;;;;;9.45;4.70;;;;;;;21.58;67.81;101977.72;5059271;28;20579;-86
2023/08/22 09:31:55;;;;;;;8.57;4.65;;;;;;;21.59;66.67;101967.03;5053589;28;21233;-85
2023/08/22 09:34:21;;;;;;;7.38;4.78;;;;;;;21.62;66.30;101964.25;5055838;28;20384;-86
2023/08/22 09:36:46;;;;;;;9.68;4.57;;;;;;;21.67;68.19;101971.94;5057965;28;20491;-86
2023/08/22 09:39:13;;;;;;;11.20;4.75;;;;;;;21.71;67.20;101970.81;5059326;28;20126;-85
2023/08/22 09:41:39;;;;;;;9.20;4.82;;;;;;;21.77;66.72;101964.34;5055169;28;20143;-85
2023/08/22 09:44:05;;;;;;;8.18;4.95;;;;;;;21.88;68.28;101976.97;5053235;28;20035;-85
2023/08/22 09:46:31;;;;;;;10.13;4.68;;;;;;;21.96;66.50;101970.31;5049489;28;20033;-85
2023/08/22 09:48:59;;;;;;;9.15;4.43;;;;;;;22.04;65.99;101971.66;5050144;28;20098;-83
2023/08/22 09:51:25;;;;;;;8.80;4.78;;;;;;;22.09;65.73;101977.56;5049411;28;20104;-85
2023/08/22 09:53:52;;;;;;;9.55;4.72;;;;;;;22.09;64.52;101980.22;5047188;28;20107;-84
2023/08/22 09:56:18;;;;;;;9.23;5.03;;;;;;;22.02;65.34;101981.53;5055153;28;20049;-85
2023/08/22 09:58:44;;;;;;;7.18;4.43;;;;;;;21.98;66.14;101992.28;5049193;28;20608;-85
2023/08/22 10:01:16;;;;;;;9.85;4.90;;;;;;;21.96;66.25;101991.50;5048537;28;20052;-85
2023/08/22 10:03:43;;;;;;;10.32;4.93;;;;;;;21.98;65.76;101994.06;5050416;28;20484;-85
2023/08/22 10:06:11;;;;;;;7.65;4.82;;;;;;;22.02;65.88;101978.88;5052292;28;20107;-85
2023/08/22 10:08:37;;;;;;;7.28;4.93;;;;;;;22.05;65.63;101983.97;5051415;28;20048;-85
2023/08/22 10:11:04;;;;;;;7.03;4.35;;;;;;;22.10;65.32;101987.22;5056478;28;20067;-85
2023/08/22 10:13:29;;;;;;;8.07;4.82;;;;;;;22.17;65.97;101983.28;5059671;28;20430;-84
2023/08/22 10:15:56;;;;;;;12.32;5.18;;;;;;;22.24;65.78;101989.94;5051283;28;20484;-85
2023/08/22 10:18:23;;;;;;;9.07;4.57;;;;;;;22.31;65.56;101989.59;5057249;28;20365;-85
2023/08/22 10:20:48;;;;;;;8.02;4.82;;;;;;;22.38;65.69;101972.38;5052653;28;20046;-86
2023/08/22 10:23:15;;;;;;;8.05;5.03;;;;;;;22.44;65.91;101972.06;5054228;28;20028;-85
2023/08/22 10:25:50;;;;;;;7.65;4.95;;;;;;;22.51;66.08;101977.88;5055362;28;20029;-85
2023/08/22 10:28:16;;;;;;;10.23;4.97;;;;;;;22.55;65.31;101982.06;5052669;28;20128;-86
2023/08/22 10:31:03;;;;;;;8.30;5.32;;;;;;;22.61;66.05;101980.84;5054831;28;20016;-86
2023/08/22 10:33:29;;;;;;;7.45;4.75;;;;;;;22.61;65.17;101968.44;5050611;28;20158;-86
2023/08/22 10:36:16;;;;;;;8.55;4.75;;;;;;;22.62;65.58;101966.63;5047792;28;20586;-86
2023/08/22 10:38:51;;;;;;;11.68;4.60;;;;;;;22.58;64.68;101972.09;5053538;28;20032;-85
2023/08/22 10:41:19;;;;;;;10.60;4.53;;;;;;;22.61;63.82;101972.88;5051341;28;20032;-85
2023/08/22 10:43:45;;;;;;;9.60;4.55;;;;;;;22.64;63.18;101972.69;5051264;28;20052;-85
2023/08/22 10:46:10;;;;;;;7.70;4.43;;;;;;;22.67;63.60;101969.88;5052753;28;20067;-86
2023/08/22 10:48:35;;;;;;;6.38;3.45;;;;;;;22.71;60.81;101966.09;5048500;28;20452;-86
2023/08/22 10:51:06;;;;;;;7.25;3.72;;;;;;;22.74;62.32;101960.59;5051405;28;20051;-86
2023/08/22 10:53:43;;;;;;;8.15;3.92;;;;;;;22.80;63.33;101954.91;5058243;28;20473;-85
2023/08/22 10:56:22;;;;;;;8.25;3.85;;;;;;;22.84;62.21;101956.44;5054257;28;20048;-86
2023/08/22 10:58:58;;;;;;;7.15;3.17;;;;;;;22.80;63.46;101960.22;5052003;28;20051;-84
2023/08/22 11:01:24;;;;;;;5.95;2.85;;;;;;;22.79;62.19;101963.00;5054985;28;20052;-85
2023/08/22 11:03:51;;;;;;;5.15;2.10;;;;;;;22.85;58.52;101966.13;5055865;28;21011;-86
2023/08/22 11:06:18;;;;;;;4.38;1.63;;;;;;;22.91;58.73;101962.25;5054239;28;20082;-87
2023/08/22 11:08:45;;;;;;;3.92;1.60;;;;;;;22.99;57.96;101959.97;5058058;28;20028;-86
2023/08/22 11:11:12;;;;;;;5.65;1.65;;;;;;;23.10;58.05;101964.63;5057791;28;20055;-86
2023/08/22 11:13:38;;;;;;;4.22;1.65;;;;;;;23.19;56.35;101956.09;5057360;28;20736;-86
2023/08/22 11:16:12;;;;;;;3.72;1.25;;;;;;;23.30;56.66;101962.56;5056076;28;20051;-87
2023/08/22 11:18:39;;;;;;;3.33;1.40;;;;;;;23.34;55.60;101969.41;5052790;28;20059;-88
2023/08/22 11:21:05;;;;;;;3.85;1.42;;;;;;;23.33;55.05;101962.38;5053121;28;20037;-86